Etusivu
METAR-TAF:

METAR-TAF

Lentoasemat :

La Paz, Bolivia

El Alton kansainvälinen lentoasema

Leveyspiiri: 16-31S, Pituuspiiri: 068-11W, korkeus merenpinnasta: 4058 m

Tämänhetkinen sää

Tämä raportti tehtiin 12 minuuttia sitten, kello 17.00 UTC
Tuuli 5 kn idästä/kaakosta
Lämpötila 13°C
Kosteus 38%
Ilmanpaine 1038 hPa
Näkyvyys 10 km tai enemmän
Hajanaisia pilviä 2000 ft:n korkeudessa

METAR: SLLP 191700Z 12005KT 9999 SCT020 13/M01 Q1038

Aika: 13:12 (17:12 UTC)

Sääennuste

Tämä raportti tehtiin 6 tuntia ja 55 minuuttia sitten, kello 10.17 UTC
Ennuste voimassa 19. päivästä klo 12 UTC - 20. päivään klo 12 UTC
Tuuli 10 kn etelästä/kaakosta
Näkyvyys 10 km tai enemmän
Muutamia pilviä 2000 ft:n korkeudessa
Tulossa
20. päivästä klo 05 UTC - 20. päivään klo 10 UTC
Tuuli 5 kn idästä/koillisesta
Näkyvyys: 3000 m
Muutamia pilviä 200 ft:n korkeudessa
sumua näköpiirissä

TAF: SLLP 191017Z 1912/2012 15010KT 9999 FEW020 TX16/1920Z TN01/2010Z BECMG 2005/2010 07005KT 3000E VCFG FEW002

Säähavainnot ja -ennusteet yli 4000 lentoasemalta (METAR- ja TAF-raportit).

Käytössä olevat sääasemat on merkitty karttaan keltaisilla ja punaisilla pisteillä.

Aseta hiiri pisteen päälle nähdäksesi sääaseman nimen.

Klikkaa sitten nähdäksesi säähavainnot ja -ennusteet.

Kartan vaihtaminen: klikkaa mustalla rastilla varustettuja vihreitä pisteitä, niin voit zoomata sisään; viivalla varustettua vihreää pistettä, niin voit zoomata ulos tai vihreitä nuolia, niin pääset viereisille kartoille.


METAR-TAF: